sensor_id;sensor_type;location;lat;lon;timestamp;pressure;altitude;pressure_sealevel;temperature;humidity
5753;BME280;2901;42.140;24.760;2022-11-15T00:01:36;100206.34;;;8.27;100.00
5753;BME280;2901;42.140;24.760;2022-11-15T00:04:05;100193.53;;;8.32;100.00
5753;BME280;2901;42.140;24.760;2022-11-15T00:06:31;100190.16;;;8.38;100.00
5753;BME280;2901;42.140;24.760;2022-11-15T00:09:00;100192.97;;;8.53;100.00
5753;BME280;2901;42.140;24.760;2022-11-15T00:11:26;100203.44;;;8.65;100.00
5753;BME280;2901;42.140;24.760;2022-11-15T00:13:55;100200.09;;;8.72;100.00
5753;BME280;2901;42.140;24.760;2022-11-15T00:16:21;100204.50;;;8.82;100.00
5753;BME280;2901;42.140;24.760;2022-11-15T00:18:46;100191.63;;;8.85;100.00
5753;BME280;2901;42.140;24.760;2022-11-15T00:21:13;100192.53;;;8.90;100.00
5753;BME280;2901;42.140;24.760;2022-11-15T00:23:40;100196.91;;;8.94;100.00
5753;BME280;2901;42.140;24.760;2022-11-15T00:26:06;100197.78;;;8.95;100.00
5753;BME280;2901;42.140;24.760;2022-11-15T00:28:32;100197.81;;;8.98;100.00
5753;BME280;2901;42.140;24.760;2022-11-15T00:31:01;100200.41;;;9.01;100.00
5753;BME280;2901;42.140;24.760;2022-11-15T00:33:27;100199.50;;;8.97;100.00
5753;BME280;2901;42.140;24.760;2022-11-15T00:35:52;100192.69;;;9.04;100.00
5753;BME280;2901;42.140;24.760;2022-11-15T00:38:18;100193.63;;;9.10;100.00
5753;BME280;2901;42.140;24.760;2022-11-15T00:40:43;100198.75;;;9.07;100.00
5753;BME280;2901;42.140;24.760;2022-11-15T00:43:08;100201.41;;;9.12;100.00
5753;BME280;2901;42.140;24.760;2022-11-15T00:45:34;100197.03;;;9.06;100.00
5753;BME280;2901;42.140;24.760;2022-11-15T00:47:59;100190.06;;;8.99;100.00
5753;BME280;2901;42.140;24.760;2022-11-15T00:50:24;100184.88;;;8.98;100.00
5753;BME280;2901;42.140;24.760;2022-11-15T00:52:50;100180.56;;;8.95;100.00
5753;BME280;2901;42.140;24.760;2022-11-15T00:55:17;100184.00;;;8.96;100.00
5753;BME280;2901;42.140;24.760;2022-11-15T00:57:43;100183.19;;;9.00;100.00
5753;BME280;2901;42.140;24.760;2022-11-15T01:00:09;100177.13;;;8.98;100.00
5753;BME280;2901;42.140;24.760;2022-11-15T01:02:35;100179.72;;;8.99;100.00
5753;BME280;2901;42.140;24.760;2022-11-15T01:05:00;100178.03;;;9.01;100.00
5753;BME280;2901;42.140;24.760;2022-11-15T01:07:26;100178.06;;;9.04;100.00
5753;BME280;2901;42.140;24.760;2022-11-15T01:09:51;100177.16;;;9.01;100.00
5753;BME280;2901;42.140;24.760;2022-11-15T01:12:17;100175.44;;;9.03;100.00
5753;BME280;2901;42.140;24.760;2022-11-15T01:14:42;100182.38;;;9.04;100.00
5753;BME280;2901;42.140;24.760;2022-11-15T01:17:08;100169.41;;;9.01;100.00
5753;BME280;2901;42.140;24.760;2022-11-15T01:19:33;100169.38;;;8.99;100.00
5753;BME280;2901;42.140;24.760;2022-11-15T01:21:58;100166.00;;;9.02;100.00
5753;BME280;2901;42.140;24.760;2022-11-15T01:24:24;100165.09;;;8.98;100.00
5753;BME280;2901;42.140;24.760;2022-11-15T01:26:49;100162.53;;;9.01;100.00
5753;BME280;2901;42.140;24.760;2022-11-15T01:29:15;100145.25;;;8.94;100.00
5753;BME280;2901;42.140;24.760;2022-11-15T01:31:40;100158.19;;;8.96;100.00
5753;BME280;2901;42.140;24.760;2022-11-15T01:34:05;100169.34;;;8.96;100.00
5753;BME280;2901;42.140;24.760;2022-11-15T01:36:31;100165.03;;;8.92;100.00
5753;BME280;2901;42.140;24.760;2022-11-15T01:38:57;100162.41;;;8.91;100.00
5753;BME280;2901;42.140;24.760;2022-11-15T01:41:25;100160.69;;;8.88;100.00
5753;BME280;2901;42.140;24.760;2022-11-15T01:43:53;100158.97;;;8.90;100.00
5753;BME280;2901;42.140;24.760;2022-11-15T01:48:44;100154.59;;;8.81;100.00
5753;BME280;2901;42.140;24.760;2022-11-15T01:51:12;100153.72;;;8.81;100.00
5753;BME280;2901;42.140;24.760;2022-11-15T01:53:42;100155.44;;;8.82;100.00
5753;BME280;2901;42.140;24.760;2022-11-15T01:56:12;100145.16;;;8.86;100.00
5753;BME280;2901;42.140;24.760;2022-11-15T01:58:39;100151.28;;;8.96;100.00
5753;BME280;2901;42.140;24.760;2022-11-15T02:01:06;100150.47;;;9.00;100.00
5753;BME280;2901;42.140;24.760;2022-11-15T02:03:38;100150.47;;;9.00;100.00
5753;BME280;2901;42.140;24.760;2022-11-15T02:06:05;100162.44;;;8.94;100.00
5753;BME280;2901;42.140;24.760;2022-11-15T02:08:30;100142.50;;;8.80;100.00
5753;BME280;2901;42.140;24.760;2022-11-15T02:10:56;100159.78;;;8.86;100.00
5753;BME280;2901;42.140;24.760;2022-11-15T02:13:22;100153.75;;;8.84;100.00
5753;BME280;2901;42.140;24.760;2022-11-15T02:16:13;100158.13;;;8.91;100.00
5753;BME280;2901;42.140;24.760;2022-11-15T02:30:00;100150.59;;;9.14;100.00
5753;BME280;2901;42.140;24.760;2022-11-15T02:32:45;100148.09;;;9.18;100.00
5753;BME280;2901;42.140;24.760;2022-11-15T02:35:37;100148.94;;;9.20;100.00
5753;BME280;2901;42.140;24.760;2022-11-15T02:41:03;100149.84;;;9.25;100.00
5753;BME280;2901;42.140;24.760;2022-11-15T02:43:41;100141.16;;;9.16;100.00
5753;BME280;2901;42.140;24.760;2022-11-15T02:49:11;100138.59;;;9.17;100.00
5753;BME280;2901;42.140;24.760;2022-11-15T02:51:38;100134.28;;;9.19;100.00
5753;BME280;2901;42.140;24.760;2022-11-15T02:54:04;100131.75;;;9.25;100.00
5753;BME280;2901;42.140;24.760;2022-11-15T02:56:29;100139.59;;;9.33;100.00
5753;BME280;2901;42.140;24.760;2022-11-15T03:01:59;100130.19;;;9.41;100.00
5753;BME280;2901;42.140;24.760;2022-11-15T03:04:53;100123.34;;;9.48;100.00
5753;BME280;2901;42.140;24.760;2022-11-15T03:07:28;100133.69;;;9.48;100.00
5753;BME280;2901;42.140;24.760;2022-11-15T03:10:02;100137.97;;;9.46;100.00
5753;BME280;2901;42.140;24.760;2022-11-15T03:12:36;100144.84;;;9.44;100.00
5753;BME280;2901;42.140;24.760;2022-11-15T03:15:11;100134.41;;;9.31;100.00
5753;BME280;2901;42.140;24.760;2022-11-15T03:17:51;100132.63;;;9.24;100.00
5753;BME280;2901;42.140;24.760;2022-11-15T03:20:20;100134.25;;;9.15;100.00
5753;BME280;2901;42.140;24.760;2022-11-15T03:22:48;100139.41;;;9.12;100.00
5753;BME280;2901;42.140;24.760;2022-11-15T03:25:21;100132.47;;;9.09;100.00
5753;BME280;2901;42.140;24.760;2022-11-15T03:27:50;100139.38;;;9.09;100.00
5753;BME280;2901;42.140;24.760;2022-11-15T03:30:17;100136.75;;;9.04;100.00
5753;BME280;2901;42.140;24.760;2022-11-15T03:32:47;100131.50;;;8.95;100.00
5753;BME280;2901;42.140;24.760;2022-11-15T03:35:20;100128.88;;;8.94;100.00
5753;BME280;2901;42.140;24.760;2022-11-15T03:40:42;100108.97;;;8.83;100.00
5753;BME280;2901;42.140;24.760;2022-11-15T03:43:16;100121.16;;;8.97;100.00
5753;BME280;2901;42.140;24.760;2022-11-15T03:45:53;100115.13;;;8.95;100.00
5753;BME280;2901;42.140;24.760;2022-11-15T03:48:26;100111.81;;;9.08;100.00
5753;BME280;2901;42.140;24.760;2022-11-15T03:50:54;100109.28;;;9.15;100.00
5753;BME280;2901;42.140;24.760;2022-11-15T03:53:20;100101.59;;;9.23;100.00
5753;BME280;2901;42.140;24.760;2022-11-15T03:55:45;100105.03;;;9.23;100.00
5753;BME280;2901;42.140;24.760;2022-11-15T03:58:11;100103.31;;;9.22;100.00
5753;BME280;2901;42.140;24.760;2022-11-15T04:00:36;100105.84;;;9.16;100.00
5753;BME280;2901;42.140;24.760;2022-11-15T04:03:01;100103.97;;;9.00;100.00
5753;BME280;2901;42.140;24.760;2022-11-15T04:05:27;100098.72;;;8.91;100.00
5753;BME280;2901;42.140;24.760;2022-11-15T04:07:52;100100.28;;;8.77;100.00
5753;BME280;2901;42.140;24.760;2022-11-15T04:10:18;100089.88;;;8.69;100.00
5753;BME280;2901;42.140;24.760;2022-11-15T04:12:44;100088.97;;;8.64;100.00
5753;BME280;2901;42.140;24.760;2022-11-15T04:15:15;100091.59;;;8.67;100.00
5753;BME280;2901;42.140;24.760;2022-11-15T04:17:47;100082.94;;;8.64;100.00
5753;BME280;2901;42.140;24.760;2022-11-15T04:20:27;100084.75;;;8.71;100.00
5753;BME280;2901;42.140;24.760;2022-11-15T04:23:14;100075.28;;;8.71;100.00
5753;BME280;2901;42.140;24.760;2022-11-15T04:26:01;100075.16;;;8.59;100.00
5753;BME280;2901;42.140;24.760;2022-11-15T04:28:27;100079.50;;;8.62;100.00
5753;BME280;2901;42.140;24.760;2022-11-15T04:30:52;100082.06;;;8.62;100.00
5753;BME280;2901;42.140;24.760;2022-11-15T04:33:18;100081.94;;;8.51;100.00
5753;BME280;2901;42.140;24.760;2022-11-15T04:35:43;100079.41;;;8.54;100.00
5753;BME280;2901;42.140;24.760;2022-11-15T04:38:29;100075.94;;;8.54;100.00
5753;BME280;2901;42.140;24.760;2022-11-15T04:40:54;100080.25;;;8.53;100.00
5753;BME280;2901;42.140;24.760;2022-11-15T04:43:20;100081.91;;;8.50;100.00
5753;BME280;2901;42.140;24.760;2022-11-15T04:45:45;100081.88;;;8.45;100.00
5753;BME280;2901;42.140;24.760;2022-11-15T04:48:10;100086.06;;;8.34;100.00
5753;BME280;2901;42.140;24.760;2022-11-15T04:50:36;100078.13;;;8.22;100.00
5753;BME280;2901;42.140;24.760;2022-11-15T04:53:01;100090.94;;;8.14;100.00
5753;BME280;2901;42.140;24.760;2022-11-15T04:55:26;100078.69;;;7.98;100.00
5753;BME280;2901;42.140;24.760;2022-11-15T04:57:59;100074.31;;;7.94;100.00
5753;BME280;2901;42.140;24.760;2022-11-15T05:00:25;100080.31;;;7.92;100.00
5753;BME280;2901;42.140;24.760;2022-11-15T05:02:51;100057.78;;;7.78;100.00
5753;BME280;2901;42.140;24.760;2022-11-15T05:05:35;100065.66;;;7.88;100.00
5753;BME280;2901;42.140;24.760;2022-11-15T05:08:00;100081.22;;;7.95;100.00
5753;BME280;2901;42.140;24.760;2022-11-15T05:10:26;100071.81;;;7.99;100.00
5753;BME280;2901;42.140;24.760;2022-11-15T05:12:51;100070.22;;;8.08;100.00
5753;BME280;2901;42.140;24.760;2022-11-15T05:15:16;100072.09;;;8.20;100.00
5753;BME280;2901;42.140;24.760;2022-11-15T05:17:42;100073.97;;;8.31;100.00
5753;BME280;2901;42.140;24.760;2022-11-15T05:20:07;100076.69;;;8.44;100.00
5753;BME280;2901;42.140;24.760;2022-11-15T05:22:33;100077.66;;;8.52;100.00
5753;BME280;2901;42.140;24.760;2022-11-15T05:24:58;100079.47;;;8.59;100.00
5753;BME280;2901;42.140;24.760;2022-11-15T05:27:24;100076.03;;;8.61;100.00
5753;BME280;2901;42.140;24.760;2022-11-15T05:29:49;100078.72;;;8.69;100.00
5753;BME280;2901;42.140;24.760;2022-11-15T05:32:15;100077.03;;;8.72;100.00
5753;BME280;2901;42.140;24.760;2022-11-15T05:34:41;100084.00;;;8.82;100.00
5753;BME280;2901;42.140;24.760;2022-11-15T05:37:07;100077.19;;;8.89;100.00
5753;BME280;2901;42.140;24.760;2022-11-15T05:39:32;100080.69;;;8.97;100.00
5753;BME280;2901;42.140;24.760;2022-11-15T05:42:16;100082.44;;;9.00;100.00
5753;BME280;2901;42.140;24.760;2022-11-15T05:44:45;100078.16;;;8.99;100.00
5753;BME280;2901;42.140;24.760;2022-11-15T05:47:17;100079.03;;;9.02;100.00
5753;BME280;2901;42.140;24.760;2022-11-15T05:49:44;100087.75;;;9.12;100.00
5753;BME280;2901;42.140;24.760;2022-11-15T05:52:13;100090.38;;;9.18;100.00
5753;BME280;2901;42.140;24.760;2022-11-15T05:54:42;100098.97;;;9.15;100.00
5753;BME280;2901;42.140;24.760;2022-11-15T05:57:07;100090.38;;;9.21;100.00
5753;BME280;2901;42.140;24.760;2022-11-15T05:59:34;100093.88;;;9.24;100.00
5753;BME280;2901;42.140;24.760;2022-11-15T06:02:00;100101.66;;;9.32;100.00
5753;BME280;2901;42.140;24.760;2022-11-15T06:04:26;100100.88;;;9.41;100.00
5753;BME280;2901;42.140;24.760;2022-11-15T06:06:51;100097.47;;;9.45;100.00
5753;BME280;2901;42.140;24.760;2022-11-15T06:09:16;100105.28;;;9.52;100.00
5753;BME280;2901;42.140;24.760;2022-11-15T06:11:42;100103.56;;;9.53;100.00
5753;BME280;2901;42.140;24.760;2022-11-15T06:14:07;100101.00;;;9.56;100.00
5753;BME280;2901;42.140;24.760;2022-11-15T06:16:32;100100.97;;;9.53;100.00
5753;BME280;2901;42.140;24.760;2022-11-15T06:18:58;100101.78;;;9.49;100.00
5753;BME280;2901;42.140;24.760;2022-11-15T06:21:23;100108.69;;;9.47;100.00
5753;BME280;2901;42.140;24.760;2022-11-15T06:23:48;100109.53;;;9.46;100.00
5753;BME280;2901;42.140;24.760;2022-11-15T06:26:14;100110.44;;;9.48;100.00
5753;BME280;2901;42.140;24.760;2022-11-15T06:28:39;100102.66;;;9.48;100.00
5753;BME280;2901;42.140;24.760;2022-11-15T06:31:07;100112.22;;;9.55;100.00
5753;BME280;2901;42.140;24.760;2022-11-15T06:33:32;100111.31;;;9.51;100.00
5753;BME280;2901;42.140;24.760;2022-11-15T06:36:03;100111.31;;;9.51;100.00
5753;BME280;2901;42.140;24.760;2022-11-15T06:38:28;100106.19;;;9.59;100.00
5753;BME280;2901;42.140;24.760;2022-11-15T06:40:54;100086.38;;;9.59;100.00
5753;BME280;2901;42.140;24.760;2022-11-15T06:43:19;100102.88;;;9.76;99.72
5753;BME280;2901;42.140;24.760;2022-11-15T06:45:44;100105.50;;;9.81;98.79
5753;BME280;2901;42.140;24.760;2022-11-15T06:48:10;100106.38;;;9.86;98.82
5753;BME280;2901;42.140;24.760;2022-11-15T06:50:35;100109.88;;;9.99;98.60
5753;BME280;2901;42.140;24.760;2022-11-15T06:53:03;100118.56;;;10.11;97.42
5753;BME280;2901;42.140;24.760;2022-11-15T06:55:28;100111.75;;;10.19;97.41
5753;BME280;2901;42.140;24.760;2022-11-15T06:57:53;100108.38;;;10.32;96.90
5753;BME280;2901;42.140;24.760;2022-11-15T07:00:20;100103.22;;;10.38;95.70
5753;BME280;2901;42.140;24.760;2022-11-15T07:02:47;100104.13;;;10.54;96.34
5753;BME280;2901;42.140;24.760;2022-11-15T07:05:13;100105.94;;;10.73;95.85
5753;BME280;2901;42.140;24.760;2022-11-15T07:07:39;100103.34;;;10.81;95.37
5753;BME280;2901;42.140;24.760;2022-11-15T07:10:06;100094.75;;;11.00;95.53
5753;BME280;2901;42.140;24.760;2022-11-15T07:12:31;100098.22;;;11.17;94.32
5753;BME280;2901;42.140;24.760;2022-11-15T07:14:57;100093.91;;;11.31;93.54
5753;BME280;2901;42.140;24.760;2022-11-15T07:17:22;100090.47;;;11.41;92.64
5753;BME280;2901;42.140;24.760;2022-11-15T07:19:47;100095.63;;;11.37;88.82
5753;BME280;2901;42.140;24.760;2022-11-15T07:22:13;100091.31;;;11.22;89.15
5753;BME280;2901;42.140;24.760;2022-11-15T07:24:38;100094.78;;;11.18;88.54
5753;BME280;2901;42.140;24.760;2022-11-15T07:27:04;100087.00;;;11.21;88.47
5753;BME280;2901;42.140;24.760;2022-11-15T07:29:29;100074.03;;;11.17;88.36
5753;BME280;2901;42.140;24.760;2022-11-15T07:31:54;100093.91;;;11.33;88.22
5753;BME280;2901;42.140;24.760;2022-11-15T07:34:20;100096.50;;;11.46;89.03
5753;BME280;2901;42.140;24.760;2022-11-15T07:36:45;100085.25;;;11.51;88.30
5753;BME280;2901;42.140;24.760;2022-11-15T07:39:11;100085.25;;;11.69;88.42
5753;BME280;2901;42.140;24.760;2022-11-15T07:41:37;100079.16;;;11.89;89.07
5753;BME280;2901;42.140;24.760;2022-11-15T07:44:04;100074.78;;;12.11;86.85
5753;BME280;2901;42.140;24.760;2022-11-15T07:46:29;100084.22;;;12.38;86.75
5753;BME280;2901;42.140;24.760;2022-11-15T07:48:54;100083.25;;;12.56;85.63
5753;BME280;2901;42.140;24.760;2022-11-15T07:51:20;100083.09;;;12.78;84.51
5753;BME280;2901;42.140;24.760;2022-11-15T07:53:45;100070.94;;;12.85;84.09
5753;BME280;2901;42.140;24.760;2022-11-15T07:56:11;100076.94;;;12.96;83.00
5753;BME280;2901;42.140;24.760;2022-11-15T07:58:36;100080.28;;;13.16;83.48
5753;BME280;2901;42.140;24.760;2022-11-15T08:01:03;100079.25;;;13.38;82.63
5753;BME280;2901;42.140;24.760;2022-11-15T08:03:29;100072.13;;;13.59;81.65
5753;BME280;2901;42.140;24.760;2022-11-15T08:05:54;100072.78;;;13.79;80.38
5753;BME280;2901;42.140;24.760;2022-11-15T08:08:19;100070.00;;;13.95;79.27
5753;BME280;2901;42.140;24.760;2022-11-15T08:10:45;100069.94;;;14.01;78.03
5753;BME280;2901;42.140;24.760;2022-11-15T08:13:12;100062.97;;;14.03;77.58
5753;BME280;2901;42.140;24.760;2022-11-15T08:15:37;100054.38;;;13.95;77.41
5753;BME280;2901;42.140;24.760;2022-11-15T08:18:05;100058.69;;;13.98;77.77
5753;BME280;2901;42.140;24.760;2022-11-15T08:20:31;100057.00;;;13.95;78.33
5753;BME280;2901;42.140;24.760;2022-11-15T08:22:58;100056.88;;;14.06;77.91
5753;BME280;2901;42.140;24.760;2022-11-15T08:25:24;100049.84;;;14.10;77.49
5753;BME280;2901;42.140;24.760;2022-11-15T08:27:54;100046.38;;;14.12;77.55
5753;BME280;2901;42.140;24.760;2022-11-15T08:30:20;100058.50;;;14.13;77.81
5753;BME280;2901;42.140;24.760;2022-11-15T08:32:46;100051.59;;;14.12;78.13
5753;BME280;2901;42.140;24.760;2022-11-15T08:35:11;100049.03;;;14.09;77.69
5753;BME280;2901;42.140;24.760;2022-11-15T08:37:37;100052.41;;;14.16;78.00
5753;BME280;2901;42.140;24.760;2022-11-15T08:40:03;100049.00;;;14.11;78.29
5753;BME280;2901;42.140;24.760;2022-11-15T08:42:29;100045.44;;;14.16;78.35
5753;BME280;2901;42.140;24.760;2022-11-15T08:44:54;100055.69;;;14.30;77.85
5753;BME280;2901;42.140;24.760;2022-11-15T08:47:20;100033.97;;;14.31;77.73
5753;BME280;2901;42.140;24.760;2022-11-15T08:49:45;100040.91;;;14.35;77.48
5753;BME280;2901;42.140;24.760;2022-11-15T08:52:10;100039.19;;;14.31;77.35
5753;BME280;2901;42.140;24.760;2022-11-15T08:54:36;100032.28;;;14.28;77.56
5753;BME280;2901;42.140;24.760;2022-11-15T08:57:01;100030.41;;;14.39;77.81
5753;BME280;2901;42.140;24.760;2022-11-15T08:59:26;100027.00;;;14.33;78.71
5753;BME280;2901;42.140;24.760;2022-11-15T09:01:52;100016.56;;;14.36;78.76
5753;BME280;2901;42.140;24.760;2022-11-15T09:04:17;100013.00;;;14.44;77.15
5753;BME280;2901;42.140;24.760;2022-11-15T09:06:43;100012.72;;;14.63;77.41
5753;BME280;2901;42.140;24.760;2022-11-15T09:09:08;100005.63;;;14.72;77.46
5753;BME280;2901;42.140;24.760;2022-11-15T09:11:34;100001.25;;;14.74;77.13
5753;BME280;2901;42.140;24.760;2022-11-15T09:13:59;99998.44;;;14.86;77.23
5753;BME280;2901;42.140;24.760;2022-11-15T09:16:25;99983.63;;;14.90;76.90
5753;BME280;2901;42.140;24.760;2022-11-15T09:18:50;99976.75;;;14.84;77.59
5753;BME280;2901;42.140;24.760;2022-11-15T09:21:15;99978.41;;;14.91;77.67
5753;BME280;2901;42.140;24.760;2022-11-15T09:23:41;99963.47;;;14.99;77.47
5753;BME280;2901;42.140;24.760;2022-11-15T09:26:06;99972.16;;;15.00;77.72
5753;BME280;2901;42.140;24.760;2022-11-15T09:28:32;99966.13;;;14.96;78.35
5753;BME280;2901;42.140;24.760;2022-11-15T09:30:59;99962.41;;;15.10;78.79
5753;BME280;2901;42.140;24.760;2022-11-15T09:33:26;99956.03;;;15.26;77.76
5753;BME280;2901;42.140;24.760;2022-11-15T09:35:52;99961.03;;;15.38;78.09
5753;BME280;2901;42.140;24.760;2022-11-15T09:38:17;99953.75;;;15.56;78.16
5753;BME280;2901;42.140;24.760;2022-11-15T09:40:43;99951.78;;;15.68;77.47
5753;BME280;2901;42.140;24.760;2022-11-15T09:46:02;99939.63;;;15.67;78.33
5753;BME280;2901;42.140;24.760;2022-11-15T09:51:04;99932.66;;;15.21;80.85
5753;BME280;2901;42.140;24.760;2022-11-15T09:53:42;99931.06;;;15.13;79.61
5753;BME280;2901;42.140;24.760;2022-11-15T09:56:26;99935.75;;;14.94;80.83
5753;BME280;2901;42.140;24.760;2022-11-15T10:04:14;99928.16;;;15.29;79.10
5753;BME280;2901;42.140;24.760;2022-11-15T10:06:45;99920.91;;;15.43;78.14
5753;BME280;2901;42.140;24.760;2022-11-15T10:09:20;99913.88;;;15.48;78.83
5753;BME280;2901;42.140;24.760;2022-11-15T10:11:49;99905.78;;;15.62;77.79
5753;BME280;2901;42.140;24.760;2022-11-15T10:14:20;99904.59;;;15.34;78.23
5753;BME280;2901;42.140;24.760;2022-11-15T10:24:41;99887.66;;;15.54;76.82
5753;BME280;2901;42.140;24.760;2022-11-15T10:27:17;99890.38;;;15.48;77.13
5753;BME280;2901;42.140;24.760;2022-11-15T10:29:48;99884.34;;;15.45;76.83
5753;BME280;2901;42.140;24.760;2022-11-15T10:32:17;99884.50;;;15.37;77.11
5753;BME280;2901;42.140;24.760;2022-11-15T10:34:43;99886.41;;;15.29;77.58
5753;BME280;2901;42.140;24.760;2022-11-15T10:37:09;99877.97;;;15.15;77.84
5753;BME280;2901;42.140;24.760;2022-11-15T10:39:34;99872.84;;;15.11;77.86
5753;BME280;2901;42.140;24.760;2022-11-15T10:42:18;99869.31;;;15.13;77.65
5753;BME280;2901;42.140;24.760;2022-11-15T10:44:50;99860.81;;;15.03;78.91
5753;BME280;2901;42.140;24.760;2022-11-15T10:47:27;99852.53;;;14.82;79.84
5753;BME280;2901;42.140;24.760;2022-11-15T10:49:59;99847.47;;;14.73;79.54
5753;BME280;2901;42.140;24.760;2022-11-15T10:52:25;99854.22;;;14.83;79.73
5753;BME280;2901;42.140;24.760;2022-11-15T10:54:52;99846.63;;;14.71;79.28
5753;BME280;2901;42.140;24.760;2022-11-15T10:57:24;99847.50;;;14.70;80.16
5753;BME280;2901;42.140;24.760;2022-11-15T10:59:54;99847.16;;;14.91;79.60
5753;BME280;2901;42.140;24.760;2022-11-15T11:02:41;99841.38;;;15.20;78.39
5753;BME280;2901;42.140;24.760;2022-11-15T11:05:30;99835.06;;;15.30;78.18
5753;BME280;2901;42.140;24.760;2022-11-15T11:08:03;99829.88;;;15.28;77.53
5753;BME280;2901;42.140;24.760;2022-11-15T11:10:29;99824.50;;;15.36;77.23
5753;BME280;2901;42.140;24.760;2022-11-15T11:12:55;99831.41;;;15.38;77.21
5753;BME280;2901;42.140;24.760;2022-11-15T11:15:22;99820.34;;;15.27;77.11
5753;BME280;2901;42.140;24.760;2022-11-15T11:18:04;99823.09;;;15.21;77.46
5753;BME280;2901;42.140;24.760;2022-11-15T11:26:18;99803.22;;;15.57;75.61
5753;BME280;2901;42.140;24.760;2022-11-15T11:40:10;99782.47;;;15.88;74.22
5753;BME280;2901;42.140;24.760;2022-11-15T11:48:12;99767.44;;;15.99;74.48
5753;BME280;2901;42.140;24.760;2022-11-15T11:50:38;99766.22;;;16.12;73.81
5753;BME280;2901;42.140;24.760;2022-11-15T11:53:30;99763.44;;;16.20;73.20
5753;BME280;2901;42.140;24.760;2022-11-15T11:56:02;99761.78;;;16.16;72.37
5753;BME280;2901;42.140;24.760;2022-11-15T11:58:39;99761.97;;;16.08;73.18
5753;BME280;2901;42.140;24.760;2022-11-15T12:01:26;99753.09;;;16.15;72.79
5753;BME280;2901;42.140;24.760;2022-11-15T12:04:03;99753.44;;;16.35;73.13
5753;BME280;2901;42.140;24.760;2022-11-15T12:06:38;99747.34;;;16.36;72.68
5753;BME280;2901;42.140;24.760;2022-11-15T12:09:33;99740.22;;;16.41;73.60
5753;BME280;2901;42.140;24.760;2022-11-15T12:17:19;99726.63;;;16.63;72.00
5753;BME280;2901;42.140;24.760;2022-11-15T12:19:46;99730.53;;;16.45;72.89
5753;BME280;2901;42.140;24.760;2022-11-15T12:25:13;99722.59;;;16.48;73.14
5753;BME280;2901;42.140;24.760;2022-11-15T12:27:40;99718.97;;;16.55;72.92
5753;BME280;2901;42.140;24.760;2022-11-15T12:30:16;99716.94;;;16.66;72.56
5753;BME280;2901;42.140;24.760;2022-11-15T12:35:35;99706.13;;;16.78;72.69
5753;BME280;2901;42.140;24.760;2022-11-15T12:38:02;99713.09;;;16.78;72.24
5753;BME280;2901;42.140;24.760;2022-11-15T12:40:30;99704.41;;;16.77;72.25
5753;BME280;2901;42.140;24.760;2022-11-15T12:43:04;99703.78;;;16.69;72.23
5753;BME280;2901;42.140;24.760;2022-11-15T12:45:56;99704.94;;;16.57;72.27
5753;BME280;2901;42.140;24.760;2022-11-15T12:51:01;99703.19;;;16.58;72.45
5753;BME280;2901;42.140;24.760;2022-11-15T12:53:33;99697.16;;;16.54;72.74
5753;BME280;2901;42.140;24.760;2022-11-15T12:58:38;99679.50;;;15.98;74.59
5753;BME280;2901;42.140;24.760;2022-11-15T13:01:09;99678.41;;;15.73;75.69
5753;BME280;2901;42.140;24.760;2022-11-15T13:03:36;99670.69;;;15.68;76.90
5753;BME280;2901;42.140;24.760;2022-11-15T13:06:42;99671.63;;;15.66;76.60
5753;BME280;2901;42.140;24.760;2022-11-15T13:11:57;99672.94;;;15.82;76.57
5753;BME280;2901;42.140;24.760;2022-11-15T13:20:14;99657.25;;;15.48;78.00
5753;BME280;2901;42.140;24.760;2022-11-15T13:25:18;99662.81;;;15.31;78.97
5753;BME280;2901;42.140;24.760;2022-11-15T13:27:46;99655.25;;;15.21;79.46
5753;BME280;2901;42.140;24.760;2022-11-15T13:30:19;99657.69;;;15.28;79.65
5753;BME280;2901;42.140;24.760;2022-11-15T13:32:45;99655.84;;;15.32;79.55
5753;BME280;2901;42.140;24.760;2022-11-15T13:35:20;99646.19;;;15.35;79.50
5753;BME280;2901;42.140;24.760;2022-11-15T13:37:45;99644.56;;;15.31;79.76
5753;BME280;2901;42.140;24.760;2022-11-15T13:42:49;99647.59;;;15.13;81.01
5753;BME280;2901;42.140;24.760;2022-11-15T13:45:17;99651.50;;;14.94;81.94
5753;BME280;2901;42.140;24.760;2022-11-15T13:47:43;99651.88;;;14.76;83.13
5753;BME280;2901;42.140;24.760;2022-11-15T13:50:12;99640.31;;;14.47;83.89
5753;BME280;2901;42.140;24.760;2022-11-15T13:52:40;99654.22;;;14.48;83.96
5753;BME280;2901;42.140;24.760;2022-11-15T13:55:20;99637.13;;;14.32;84.70
5753;BME280;2901;42.140;24.760;2022-11-15T13:58:01;99643.19;;;14.35;85.13
5753;BME280;2901;42.140;24.760;2022-11-15T14:00:40;99646.63;;;14.36;85.42
5753;BME280;2901;42.140;24.760;2022-11-15T14:03:26;99646.63;;;14.36;85.10
5753;BME280;2901;42.140;24.760;2022-11-15T14:06:15;99642.53;;;14.21;85.42
5753;BME280;2901;42.140;24.760;2022-11-15T14:11:52;99639.69;;;13.87;85.77
5753;BME280;2901;42.140;24.760;2022-11-15T14:14:21;99634.56;;;13.83;86.41
5753;BME280;2901;42.140;24.760;2022-11-15T14:16:53;99634.59;;;13.80;86.46
5753;BME280;2901;42.140;24.760;2022-11-15T14:22:18;99633.94;;;13.69;86.96
5753;BME280;2901;42.140;24.760;2022-11-15T14:25:05;99631.44;;;13.63;87.85
5753;BME280;2901;42.140;24.760;2022-11-15T14:27:33;99629.78;;;13.59;87.70
5753;BME280;2901;42.140;24.760;2022-11-15T14:29:59;99624.78;;;13.46;88.43
5753;BME280;2901;42.140;24.760;2022-11-15T14:32:27;99628.25;;;13.45;88.22
5753;BME280;2901;42.140;24.760;2022-11-15T14:34:58;99638.88;;;13.32;89.28
5753;BME280;2901;42.140;24.760;2022-11-15T14:37:32;99631.94;;;13.31;89.55
5753;BME280;2901;42.140;24.760;2022-11-15T14:40:05;99635.50;;;13.27;89.72
5753;BME280;2901;42.140;24.760;2022-11-15T14:42:31;99628.66;;;13.18;90.34
5753;BME280;2901;42.140;24.760;2022-11-15T14:44:57;99620.16;;;13.04;90.63
5753;BME280;2901;42.140;24.760;2022-11-15T14:47:22;99623.91;;;12.86;91.79
5753;BME280;2901;42.140;24.760;2022-11-15T14:49:48;99628.19;;;12.89;92.64
5753;BME280;2901;42.140;24.760;2022-11-15T14:52:28;99620.59;;;12.75;92.60
5753;BME280;2901;42.140;24.760;2022-11-15T14:54:55;99623.31;;;12.68;94.08
5753;BME280;2901;42.140;24.760;2022-11-15T14:57:20;99616.50;;;12.58;93.68